Time;durP1;ratioP1;P1;durP2;ratioP2;P2;SDS_P1;SDS_P2;PMS_P1;PMS_P2;Temp;Humidity;BMP_temperature;BMP_pressure;BME280_temperature;BME280_humidity;BME280_pressure;Samples;Min_cycle;Max_cycle;Signal;HPM_P1;HPM_P2
2023/02/18 00:02:26;;;;;;;4.72;1.65;;;;;;;;;;5044094;28;20059;-64
2023/02/18 00:04:56;;;;;;;6.07;2.97;;;;;;;;;;5092528;28;20048;-65
2023/02/18 00:07:26;;;;;;;10.10;3.03;;;;;;;;;;5075909;28;20044;-64
2023/02/18 00:09:57;;;;;;;11.77;6.45;;;;;;;;;;5039605;28;20052;-64
2023/02/18 00:12:26;;;;;;;3.83;2.63;;;;;;;;;;5072787;28;20483;-64
2023/02/18 00:14:56;;;;;;;6.75;2.78;;;;;;;;;;5074850;28;20391;-65
2023/02/18 00:17:28;;;;;;;7.00;3.33;;;;;;;;;;5056642;28;20072;-64
2023/02/18 00:19:58;;;;;;;5.07;2.92;;;;;;;;;;5055888;28;20391;-65
2023/02/18 00:22:28;;;;;;;4.28;1.73;;;;;;;;;;5074981;28;20044;-65
2023/02/18 00:24:58;;;;;;;4.30;1.75;;;;;;;;;;5074783;28;20041;-64
2023/02/18 00:27:27;;;;;;;6.28;1.88;;;;;;;;;;5042043;28;20044;-65
2023/02/18 00:29:58;;;;;;;2.50;1.30;;;;;;;;;;5071913;28;20131;-64
2023/02/18 00:32:28;;;;;;;4.00;2.15;;;;;;;;;;5032191;28;20049;-65
2023/02/18 00:35:00;;;;;;;3.45;1.58;;;;;;;;;;4992654;28;20065;-65
2023/02/18 00:37:30;;;;;;;3.85;1.60;;;;;;;;;;4953338;28;20052;-65
2023/02/18 00:40:03;;;;;;;4.95;1.83;;;;;;;;;;4906580;29;20554;-64
2023/02/18 00:42:35;;;;;;;4.13;1.45;;;;;;;;;;4934765;29;20052;-64
2023/02/18 00:45:05;;;;;;;5.05;1.73;;;;;;;;;;4903133;29;20055;-64
2023/02/18 00:47:35;;;;;;;4.40;1.42;;;;;;;;;;4915505;29;20651;-64
2023/02/18 00:50:06;;;;;;;3.33;1.65;;;;;;;;;;4915582;29;20416;-63
2023/02/18 00:52:36;;;;;;;3.63;2.13;;;;;;;;;;4880765;29;20048;-64
2023/02/18 00:55:07;;;;;;;3.30;1.80;;;;;;;;;;4877508;29;20064;-63
2023/02/18 00:57:37;;;;;;;8.15;1.65;;;;;;;;;;4877673;29;20056;-63
2023/02/18 01:00:08;;;;;;;3.80;1.88;;;;;;;;;;4862544;29;20076;-64
2023/02/18 01:02:38;;;;;;;6.72;1.80;;;;;;;;;;4880489;29;20060;-64
2023/02/18 01:05:08;;;;;;;3.40;1.65;;;;;;;;;;4890184;29;20489;-65
2023/02/18 01:07:38;;;;;;;3.38;1.73;;;;;;;;;;4931157;29;20055;-64
2023/02/18 01:10:08;;;;;;;5.55;1.77;;;;;;;;;;4934286;29;20048;-65
2023/02/18 01:12:38;;;;;;;3.05;1.58;;;;;;;;;;4934736;29;20051;-64
2023/02/18 01:15:10;;;;;;;3.40;1.67;;;;;;;;;;4991248;28;20057;-64
2023/02/18 01:17:42;;;;;;;3.20;1.63;;;;;;;;;;5011452;28;20153;-64
2023/02/18 01:20:13;;;;;;;4.28;1.65;;;;;;;;;;4979194;28;20666;-64
2023/02/18 01:22:43;;;;;;;4.10;1.70;;;;;;;;;;4986721;28;20054;-65
2023/02/18 01:25:14;;;;;;;3.65;1.67;;;;;;;;;;4981635;28;20160;-64
2023/02/18 01:27:44;;;;;;;6.50;1.80;;;;;;;;;;4991463;28;20050;-65
2023/02/18 01:30:16;;;;;;;4.57;1.30;;;;;;;;;;4991123;28;20498;-65
2023/02/18 01:32:46;;;;;;;3.17;1.50;;;;;;;;;;4991321;28;20069;-64
2023/02/18 01:35:18;;;;;;;4.53;1.50;;;;;;;;;;4990738;28;20058;-64
2023/02/18 01:37:48;;;;;;;2.88;1.42;;;;;;;;;;4990279;28;20070;-64
2023/02/18 01:40:22;;;;;;;5.18;2.08;;;;;;;;;;4950836;29;20055;-64
2023/02/18 01:42:53;;;;;;;4.72;1.75;;;;;;;;;;4951648;29;20051;-64
2023/02/18 01:45:56;;;;;;;4.40;1.95;;;;;;;;;;4951041;29;20062;-64
2023/02/18 01:48:41;;;;;;;3.80;1.88;;;;;;;;;;4951062;28;20157;-65
2023/02/18 01:51:19;;;;;;;4.13;2.10;;;;;;;;;;4973541;28;20061;-64
2023/02/18 01:54:10;;;;;;;4.53;1.92;;;;;;;;;;4942205;28;20065;-65
2023/02/18 01:56:51;;;;;;;11.50;1.92;;;;;;;;;;4958167;28;20425;-64
2023/02/18 01:59:28;;;;;;;13.85;2.15;;;;;;;;;;4953015;28;20052;-64
2023/02/18 02:01:59;;;;;;;5.82;1.27;;;;;;;;;;4971631;28;20502;-64
2023/02/18 02:04:30;;;;;;;5.00;1.40;;;;;;;;;;4954909;28;20098;-65
2023/02/18 02:07:03;;;;;;;18.83;2.03;;;;;;;;;;4971503;28;20404;-64
2023/02/18 02:09:34;;;;;;;11.02;1.92;;;;;;;;;;4923716;28;20051;-64
2023/02/18 02:12:30;;;;;;;4.80;0.90;;;;;;;;;;4986113;28;20056;-65
2023/02/18 02:15:03;;;;;;;2.92;0.60;;;;;;;;;;4951522;29;20047;-65
2023/02/18 02:17:59;;;;;;;3.80;0.90;;;;;;;;;;4977585;28;20557;-65
2023/02/18 02:21:07;;;;;;;1.38;0.77;;;;;;;;;;4932970;29;20063;-65
2023/02/18 02:23:56;;;;;;;1.75;0.55;;;;;;;;;;4962770;28;20106;-65
2023/02/18 02:26:50;;;;;;;1.85;0.40;;;;;;;;;;4971041;28;20058;-65
2023/02/18 02:29:36;;;;;;;2.40;0.63;;;;;;;;;;4957952;28;20055;-63
2023/02/18 02:32:27;;;;;;;3.42;0.50;;;;;;;;;;4952149;29;20419;-64
2023/02/18 02:35:05;;;;;;;1.88;0.40;;;;;;;;;;4920043;29;20062;-64
2023/02/18 02:38:01;;;;;;;2.50;0.80;;;;;;;;;;4960410;28;20410;-63
2023/02/18 02:40:42;;;;;;;2.88;0.88;;;;;;;;;;4937769;28;20055;-64
2023/02/18 02:44:16;;;;;;;1.00;0.43;;;;;;;;;;4951348;28;20051;-64
2023/02/18 02:46:50;;;;;;;1.80;1.13;;;;;;;;;;4894433;29;20104;-63
2023/02/18 02:49:35;;;;;;;2.55;1.00;;;;;;;;;;4894542;29;20048;-64
2023/02/18 02:52:18;;;;;;;1.92;0.52;;;;;;;;;;4866120;29;20061;-64
2023/02/18 02:54:48;;;;;;;1.27;0.30;;;;;;;;;;4857091;29;20049;-64
2023/02/18 02:57:19;;;;;;;1.55;0.60;;;;;;;;;;4838828;29;20430;-64
2023/02/18 03:00:02;;;;;;;1.33;0.35;;;;;;;;;;4856783;29;20064;-64
2023/02/18 03:02:35;;;;;;;1.45;0.30;;;;;;;;;;4841870;29;20061;-64
2023/02/18 03:05:14;;;;;;;5.65;0.63;;;;;;;;;;4849648;29;20053;-64
2023/02/18 03:08:08;;;;;;;1.35;0.60;;;;;;;;;;4856973;29;20461;-64
2023/02/18 03:10:58;;;;;;;1.45;0.30;;;;;;;;;;4849852;29;20600;-64
2023/02/18 03:13:31;;;;;;;2.92;0.40;;;;;;;;;;4820419;29;20065;-64
2023/02/18 03:16:29;;;;;;;2.53;0.60;;;;;;;;;;4778623;29;20515;-64
2023/02/18 03:19:19;;;;;;;3.90;0.40;;;;;;;;;;4748717;30;20090;-64
2023/02/18 03:22:10;;;;;;;3.03;0.20;;;;;;;;;;4732149;30;20564;-64
2023/02/18 03:24:43;;;;;;;0.80;0.30;;;;;;;;;;4823434;29;20050;-64
2023/02/18 03:27:37;;;;;;;2.75;0.30;;;;;;;;;;4838479;29;20495;-63
2023/02/18 03:30:23;;;;;;;0.63;0.50;;;;;;;;;;4807184;29;20054;-64
2023/02/18 03:33:01;;;;;;;0.57;0.30;;;;;;;;;;4790158;29;20063;-64
2023/02/18 03:35:31;;;;;;;1.83;0.43;;;;;;;;;;4784087;30;20071;-64
2023/02/18 03:38:18;;;;;;;2.13;0.40;;;;;;;;;;4801907;29;20051;-64
2023/02/18 03:40:49;;;;;;;3.42;0.30;;;;;;;;;;4801062;29;20059;-64
2023/02/18 03:43:19;;;;;;;2.67;0.28;;;;;;;;;;4820030;29;20058;-63
2023/02/18 03:45:49;;;;;;;2.20;0.88;;;;;;;;;;4820218;29;20063;-64
2023/02/18 03:48:19;;;;;;;1.05;0.28;;;;;;;;;;4820084;29;20435;-64
2023/02/18 03:50:52;;;;;;;6.80;0.43;;;;;;;;;;4828270;29;20058;-63
2023/02/18 03:53:22;;;;;;;6.13;0.55;;;;;;;;;;4802224;29;20058;-63
2023/02/18 03:55:52;;;;;;;2.35;0.40;;;;;;;;;;4819594;29;20074;-64
2023/02/18 03:58:22;;;;;;;7.00;0.50;;;;;;;;;;4838914;29;20515;-64
2023/02/18 04:00:53;;;;;;;4.18;0.50;;;;;;;;;;4872019;29;20502;-64
2023/02/18 04:03:22;;;;;;;1.63;0.43;;;;;;;;;;4907735;29;20409;-64
2023/02/18 04:05:52;;;;;;;3.05;0.63;;;;;;;;;;4893945;29;20064;-63
2023/02/18 04:08:22;;;;;;;2.50;0.32;;;;;;;;;;4909514;29;20065;-64
2023/02/18 04:10:52;;;;;;;2.10;0.40;;;;;;;;;;4961287;28;20059;-63
2023/02/18 04:13:22;;;;;;;1.05;0.35;;;;;;;;;;4953235;28;20158;-64
2023/02/18 04:15:52;;;;;;;0.68;0.22;;;;;;;;;;4977069;28;20102;-64
2023/02/18 04:18:22;;;;;;;1.35;0.30;;;;;;;;;;4976871;28;20081;-63
2023/02/18 04:20:52;;;;;;;9.98;0.50;;;;;;;;;;5000425;28;20061;-63
2023/02/18 04:23:22;;;;;;;1.75;0.15;;;;;;;;;;5032363;28;20049;-63
2023/02/18 04:25:52;;;;;;;2.22;0.50;;;;;;;;;;5051680;28;20068;-63
2023/02/18 04:28:22;;;;;;;4.93;0.50;;;;;;;;;;5072492;28;20055;-64
2023/02/18 04:30:51;;;;;;;1.60;0.32;;;;;;;;;;5018852;28;20559;-63
2023/02/18 04:33:21;;;;;;;2.47;0.32;;;;;;;;;;5052345;28;20679;-64
2023/02/18 04:35:51;;;;;;;3.67;0.68;;;;;;;;;;5052032;28;20106;-63
2023/02/18 04:38:21;;;;;;;3.20;0.30;;;;;;;;;;5035815;28;20049;-63
2023/02/18 04:40:51;;;;;;;7.60;0.60;;;;;;;;;;5018880;28;20071;-63
2023/02/18 04:43:20;;;;;;;3.70;0.40;;;;;;;;;;5002498;28;20540;-63
2023/02/18 04:45:50;;;;;;;3.00;0.35;;;;;;;;;;5051407;28;20539;-64
2023/02/18 04:48:20;;;;;;;1.05;0.50;;;;;;;;;;5035321;28;20049;-64
2023/02/18 04:50:50;;;;;;;4.63;0.50;;;;;;;;;;5035407;28;20061;-63
2023/02/18 04:53:20;;;;;;;4.82;0.70;;;;;;;;;;5015177;28;20049;-63
2023/02/18 04:55:52;;;;;;;5.85;1.20;;;;;;;;;;5031729;28;20062;-63
2023/02/18 04:58:22;;;;;;;5.45;0.43;;;;;;;;;;5041237;28;20053;-63
2023/02/18 05:00:52;;;;;;;1.38;0.10;;;;;;;;;;5034818;28;20507;-64
2023/02/18 05:03:22;;;;;;;1.35;0.20;;;;;;;;;;5051873;28;20072;-64
2023/02/18 05:05:53;;;;;;;2.22;0.43;;;;;;;;;;5051517;28;20052;-64
2023/02/18 05:08:23;;;;;;;3.35;0.40;;;;;;;;;;5060723;28;20060;-64
2023/02/18 05:10:53;;;;;;;2.90;0.45;;;;;;;;;;5071328;28;20495;-63
2023/02/18 05:13:23;;;;;;;3.42;0.50;;;;;;;;;;5071428;28;20424;-63
2023/02/18 05:15:53;;;;;;;3.28;0.32;;;;;;;;;;5071566;28;20416;-63
2023/02/18 05:18:22;;;;;;;0.75;0.30;;;;;;;;;;5021627;28;20527;-64
2023/02/18 05:20:52;;;;;;;3.17;0.32;;;;;;;;;;5070997;28;20491;-63
2023/02/18 05:23:22;;;;;;;4.30;0.50;;;;;;;;;;5071084;28;20045;-63
2023/02/18 05:25:51;;;;;;;1.70;0.38;;;;;;;;;;5021288;28;20155;-63
2023/02/18 05:28:21;;;;;;;1.10;0.20;;;;;;;;;;5071609;28;20155;-63
2023/02/18 05:30:51;;;;;;;4.15;0.60;;;;;;;;;;5081481;28;20052;-64
2023/02/18 05:33:21;;;;;;;2.03;0.30;;;;;;;;;;5093774;28;20483;-64
2023/02/18 05:35:51;;;;;;;3.70;0.45;;;;;;;;;;5092307;28;20496;-64
2023/02/18 05:38:21;;;;;;;1.70;0.10;;;;;;;;;;5093634;28;20047;-64
2023/02/18 05:40:51;;;;;;;2.28;0.30;;;;;;;;;;5075194;28;20059;-64
2023/02/18 05:43:21;;;;;;;5.00;0.40;;;;;;;;;;5093664;28;20044;-64
2023/02/18 05:45:51;;;;;;;0.50;0.30;;;;;;;;;;5041015;28;20487;-64
2023/02/18 05:48:21;;;;;;;1.33;0.30;;;;;;;;;;5093663;28;20044;-64
2023/02/18 05:50:53;;;;;;;4.13;0.30;;;;;;;;;;5093460;28;20055;-64
2023/02/18 05:53:23;;;;;;;0.32;0.22;;;;;;;;;;5033643;28;20044;-64
2023/02/18 05:55:53;;;;;;;3.35;0.40;;;;;;;;;;5050749;28;20065;-64
2023/02/18 05:58:23;;;;;;;2.45;0.22;;;;;;;;;;5017396;28;20053;-65
2023/02/18 06:00:53;;;;;;;4.88;0.60;;;;;;;;;;5050738;28;20049;-64
2023/02/18 06:03:23;;;;;;;2.08;0.25;;;;;;;;;;5050300;28;20049;-64
2023/02/18 06:05:53;;;;;;;0.32;0.25;;;;;;;;;;5050340;28;20060;-64
2023/02/18 06:08:23;;;;;;;6.95;0.50;;;;;;;;;;5050764;28;20049;-64
2023/02/18 06:10:53;;;;;;;0.82;0.32;;;;;;;;;;5016966;28;20049;-64
2023/02/18 06:13:24;;;;;;;2.15;0.68;;;;;;;;;;5016915;28;20152;-64
2023/02/18 06:15:53;;;;;;;4.05;0.77;;;;;;;;;;5033582;28;20535;-64
2023/02/18 06:18:24;;;;;;;1.35;0.20;;;;;;;;;;5050293;28;20057;-64
2023/02/18 06:20:54;;;;;;;1.85;0.43;;;;;;;;;;5049846;28;20416;-64
2023/02/18 06:23:25;;;;;;;1.25;0.32;;;;;;;;;;5050159;28;20041;-64
2023/02/18 06:25:55;;;;;;;5.55;0.55;;;;;;;;;;5001175;28;20053;-64
2023/02/18 06:28:25;;;;;;;3.35;0.40;;;;;;;;;;5049921;28;20405;-64
2023/02/18 06:30:55;;;;;;;3.75;0.30;;;;;;;;;;5070705;28;20059;-64
2023/02/18 06:33:25;;;;;;;1.48;0.40;;;;;;;;;;5092482;28;20044;-65
2023/02/18 06:36:05;;;;;;;3.05;0.52;;;;;;;;;;5057551;28;20060;-64
2023/02/18 06:38:37;;;;;;;2.70;0.30;;;;;;;;;;5069414;28;20499;-63
2023/02/18 06:41:07;;;;;;;1.75;0.38;;;;;;;;;;4957842;28;20563;-63
2023/02/18 06:43:37;;;;;;;3.90;0.47;;;;;;;;;;5020075;28;20048;-63
2023/02/18 06:46:08;;;;;;;1.25;0.95;;;;;;;;;;5070088;28;20055;-63
2023/02/18 06:48:38;;;;;;;1.73;0.38;;;;;;;;;;5019583;28;20051;-63
2023/02/18 06:51:08;;;;;;;2.35;0.40;;;;;;;;;;5068715;28;20064;-63
2023/02/18 06:53:38;;;;;;;1.60;0.40;;;;;;;;;;5069795;28;20059;-63
2023/02/18 06:56:08;;;;;;;1.40;0.60;;;;;;;;;;5069708;28;20500;-64
2023/02/18 06:58:39;;;;;;;7.93;0.73;;;;;;;;;;5036094;28;20075;-63
2023/02/18 07:01:08;;;;;;;3.92;0.40;;;;;;;;;;5036465;28;20052;-64
2023/02/18 07:03:38;;;;;;;4.38;0.60;;;;;;;;;;5069111;28;20527;-63
2023/02/18 07:06:08;;;;;;;1.92;0.40;;;;;;;;;;5069293;28;20507;-64
2023/02/18 07:08:38;;;;;;;3.40;0.30;;;;;;;;;;5037278;28;20056;-63
2023/02/18 07:11:08;;;;;;;2.22;0.38;;;;;;;;;;5092069;28;20040;-64
2023/02/18 07:13:38;;;;;;;2.95;0.52;;;;;;;;;;5092177;28;20062;-64
2023/02/18 07:16:08;;;;;;;5.32;0.30;;;;;;;;;;5039780;28;20415;-63
2023/02/18 07:18:38;;;;;;;3.33;0.35;;;;;;;;;;5049121;28;20045;-63
2023/02/18 07:21:08;;;;;;;2.97;1.02;;;;;;;;;;5031851;28;20504;-64
2023/02/18 07:23:37;;;;;;;2.55;0.40;;;;;;;;;;5032509;28;20120;-63
2023/02/18 07:26:11;;;;;;;7.20;0.43;;;;;;;;;;5049318;28;20511;-64
2023/02/18 07:28:41;;;;;;;2.03;0.50;;;;;;;;;;5000244;28;20049;-62
2023/02/18 07:31:11;;;;;;;0.65;0.32;;;;;;;;;;5049333;28;20536;-63
2023/02/18 07:33:43;;;;;;;2.90;0.60;;;;;;;;;;5049337;28;20397;-63
2023/02/18 07:36:12;;;;;;;4.40;0.40;;;;;;;;;;5033020;28;20493;-64
2023/02/18 07:38:42;;;;;;;2.00;0.30;;;;;;;;;;5049441;28;20041;-64
2023/02/18 07:41:20;;;;;;;1.92;0.80;;;;;;;;;;5032985;28;20065;-64
2023/02/18 07:43:50;;;;;;;2.20;0.60;;;;;;;;;;5028923;28;20520;-64
2023/02/18 07:46:22;;;;;;;0.93;0.70;;;;;;;;;;5029055;28;20042;-64
2023/02/18 07:48:51;;;;;;;3.33;0.60;;;;;;;;;;4999690;28;20057;-64
2023/02/18 07:51:21;;;;;;;2.80;0.38;;;;;;;;;;5000056;28;20520;-64
2023/02/18 07:53:53;;;;;;;4.05;0.80;;;;;;;;;;5032885;28;20045;-64
2023/02/18 07:56:22;;;;;;;4.25;0.40;;;;;;;;;;4954964;28;20621;-65
2023/02/18 07:58:52;;;;;;;11.00;0.82;;;;;;;;;;5052952;28;20056;-64
2023/02/18 08:01:22;;;;;;;10.30;0.80;;;;;;;;;;5019418;28;20053;-64
2023/02/18 08:03:51;;;;;;;2.22;0.60;;;;;;;;;;5003167;28;20056;-64
2023/02/18 08:06:48;;;;;;;2.35;0.40;;;;;;;;;;5052558;28;20116;-64
2023/02/18 08:09:18;;;;;;;4.40;0.52;;;;;;;;;;5052637;28;20061;-64
2023/02/18 08:11:49;;;;;;;1.77;0.52;;;;;;;;;;4996211;28;20042;-64
2023/02/18 08:14:19;;;;;;;3.80;0.30;;;;;;;;;;5012763;28;20066;-64
2023/02/18 08:16:48;;;;;;;4.90;0.52;;;;;;;;;;5012724;28;20057;-64
2023/02/18 08:19:18;;;;;;;0.85;0.20;;;;;;;;;;5012798;28;20058;-64
2023/02/18 08:21:48;;;;;;;2.72;0.32;;;;;;;;;;5024847;28;20064;-64
2023/02/18 08:24:17;;;;;;;1.27;0.32;;;;;;;;;;5032401;28;20077;-64
2023/02/18 08:26:47;;;;;;;5.57;0.38;;;;;;;;;;5032530;28;20085;-64
2023/02/18 08:29:29;;;;;;;2.95;0.52;;;;;;;;;;5032305;28;20053;-64
2023/02/18 08:31:59;;;;;;;1.98;0.43;;;;;;;;;;4999671;28;20509;-64
2023/02/18 08:34:28;;;;;;;3.10;0.40;;;;;;;;;;4999530;28;20049;-64
2023/02/18 08:37:01;;;;;;;6.80;0.98;;;;;;;;;;5015537;28;20457;-64
2023/02/18 08:39:38;;;;;;;1.30;0.40;;;;;;;;;;5032231;28;20054;-64
2023/02/18 08:42:07;;;;;;;4.88;0.52;;;;;;;;;;4999406;28;20053;-64
2023/02/18 08:44:37;;;;;;;2.53;0.40;;;;;;;;;;5015961;28;20061;-64
2023/02/18 08:47:07;;;;;;;1.40;0.50;;;;;;;;;;5032176;28;20053;-64
2023/02/18 08:49:57;;;;;;;3.80;0.63;;;;;;;;;;5039474;28;20063;-64
2023/02/18 08:52:27;;;;;;;1.75;0.40;;;;;;;;;;5072168;28;20048;-64
2023/02/18 08:54:58;;;;;;;1.48;0.55;;;;;;;;;;5073253;28;20038;-65
2023/02/18 08:57:28;;;;;;;5.53;1.00;;;;;;;;;;5038906;28;20063;-64
2023/02/18 08:59:57;;;;;;;6.80;0.60;;;;;;;;;;5038086;28;20385;-64
2023/02/18 09:02:28;;;;;;;1.08;0.43;;;;;;;;;;5074128;28;20055;-65
2023/02/18 09:04:57;;;;;;;3.95;0.50;;;;;;;;;;5038144;28;20053;-64
2023/02/18 09:07:27;;;;;;;3.85;0.60;;;;;;;;;;5074354;28;20053;-64
2023/02/18 09:09:57;;;;;;;2.28;0.50;;;;;;;;;;5073934;28;20048;-64
2023/02/18 09:12:27;;;;;;;2.65;0.60;;;;;;;;;;5055459;28;20519;-64
2023/02/18 09:14:57;;;;;;;1.23;0.43;;;;;;;;;;5055399;28;20060;-64
2023/02/18 09:17:27;;;;;;;0.88;0.50;;;;;;;;;;5073800;28;20480;-64
2023/02/18 09:19:57;;;;;;;2.20;0.52;;;;;;;;;;5055631;28;20060;-64
2023/02/18 09:22:27;;;;;;;2.85;0.45;;;;;;;;;;5038404;28;20068;-64
2023/02/18 09:24:57;;;;;;;1.38;0.40;;;;;;;;;;5038271;28;20049;-64
2023/02/18 09:27:26;;;;;;;2.90;0.47;;;;;;;;;;5021961;28;20135;-64
2023/02/18 09:29:56;;;;;;;3.83;1.88;;;;;;;;;;5073687;28;20497;-64
2023/02/18 09:32:26;;;;;;;1.98;0.43;;;;;;;;;;5073599;28;20480;-63
2023/02/18 09:35:04;;;;;;;3.30;1.10;;;;;;;;;;5054693;28;20067;-64
2023/02/18 09:37:34;;;;;;;2.25;0.57;;;;;;;;;;5073407;28;20048;-63
2023/02/18 09:40:04;;;;;;;3.30;0.50;;;;;;;;;;5071927;28;20514;-64
2023/02/18 09:42:35;;;;;;;1.10;0.47;;;;;;;;;;5073454;28;20036;-64
2023/02/18 09:45:09;;;;;;;4.15;0.75;;;;;;;;;;5020977;28;20420;-64
2023/02/18 09:47:43;;;;;;;2.17;0.68;;;;;;;;;;5073197;28;20044;-63
2023/02/18 09:50:26;;;;;;;1.73;0.65;;;;;;;;;;5038002;28;20495;-64
2023/02/18 09:52:59;;;;;;;4.07;0.70;;;;;;;;;;5037600;28;20484;-64
2023/02/18 09:55:38;;;;;;;4.22;0.80;;;;;;;;;;5071771;28;20395;-64
2023/02/18 09:58:39;;;;;;;1.70;0.50;;;;;;;;;;5006077;28;20460;-64
2023/02/18 10:01:42;;;;;;;3.65;0.60;;;;;;;;;;5010851;28;20057;-64
2023/02/18 10:04:22;;;;;;;3.05;1.00;;;;;;;;;;4952070;29;20047;-64
2023/02/18 10:06:53;;;;;;;5.60;1.13;;;;;;;;;;4952499;29;20055;-64
2023/02/18 10:09:23;;;;;;;4.88;1.33;;;;;;;;;;4951919;28;20063;-63
2023/02/18 10:12:13;;;;;;;7.40;2.53;;;;;;;;;;4932865;29;20051;-63
2023/02/18 10:14:47;;;;;;;8.30;2.83;;;;;;;;;;4933315;29;20055;-63
2023/02/18 10:17:19;;;;;;;8.98;2.13;;;;;;;;;;4933032;29;20074;-63
2023/02/18 10:19:52;;;;;;;5.55;1.85;;;;;;;;;;4932824;29;20047;-64
2023/02/18 10:22:25;;;;;;;9.20;2.40;;;;;;;;;;4932517;29;20051;-64
2023/02/18 10:25:00;;;;;;;4.13;1.33;;;;;;;;;;4933048;29;20060;-64
2023/02/18 10:27:34;;;;;;;5.57;1.27;;;;;;;;;;4932929;29;20075;-63
2023/02/18 10:30:34;;;;;;;8.05;1.40;;;;;;;;;;4932648;29;20056;-64
2023/02/18 10:33:27;;;;;;;5.15;1.75;;;;;;;;;;4933001;29;20068;-64
2023/02/18 10:36:21;;;;;;;4.10;1.15;;;;;;;;;;4932619;29;20526;-64
2023/02/18 10:39:02;;;;;;;5.25;1.30;;;;;;;;;;4952032;28;20054;-63
2023/02/18 10:41:41;;;;;;;6.15;1.00;;;;;;;;;;5013896;28;20046;-64
2023/02/18 10:44:19;;;;;;;3.40;1.92;;;;;;;;;;4996829;28;20447;-64
2023/02/18 10:47:16;;;;;;;1.60;0.80;;;;;;;;;;5014088;28;20041;-64
2023/02/18 10:49:57;;;;;;;4.78;1.30;;;;;;;;;;5037594;28;20063;-64
2023/02/18 10:52:34;;;;;;;4.45;0.88;;;;;;;;;;5071795;28;20040;-64
2023/02/18 10:55:08;;;;;;;6.15;1.00;;;;;;;;;;5053667;28;20063;-64
2023/02/18 10:57:53;;;;;;;4.35;0.82;;;;;;;;;;5071839;28;20044;-65
2023/02/18 11:00:26;;;;;;;5.93;0.77;;;;;;;;;;5071026;28;20040;-65
2023/02/18 11:03:16;;;;;;;2.58;1.30;;;;;;;;;;5071767;28;20392;-65
2023/02/18 11:05:49;;;;;;;3.80;0.98;;;;;;;;;;5052582;28;20053;-65
2023/02/18 11:08:27;;;;;;;4.22;0.77;;;;;;;;;;5071993;28;20053;-65
2023/02/18 11:10:58;;;;;;;3.58;0.88;;;;;;;;;;5072107;28;20055;-65
2023/02/18 11:13:33;;;;;;;1.80;0.25;;;;;;;;;;5070510;28;20041;-65
2023/02/18 11:16:08;;;;;;;2.15;0.40;;;;;;;;;;5071858;28;20048;-66
2023/02/18 11:18:47;;;;;;;1.38;0.50;;;;;;;;;;5036507;28;20048;-62
2023/02/18 11:21:22;;;;;;;4.22;0.65;;;;;;;;;;5053305;28;20519;-63
2023/02/18 11:23:54;;;;;;;0.88;0.43;;;;;;;;;;5056949;28;20055;-64
2023/02/18 11:26:35;;;;;;;2.35;0.52;;;;;;;;;;5074451;28;20037;-65
2023/02/18 11:29:19;;;;;;;6.20;2.20;;;;;;;;;;5057053;28;20063;-64
2023/02/18 11:31:52;;;;;;;0.70;0.35;;;;;;;;;;5074035;28;20052;-64
2023/02/18 11:34:27;;;;;;;7.07;0.60;;;;;;;;;;5019973;28;20156;-64
2023/02/18 11:37:18;;;;;;;0.90;0.32;;;;;;;;;;5020579;28;20068;-64
2023/02/18 11:39:50;;;;;;;0.90;0.47;;;;;;;;;;5020132;28;20072;-62
2023/02/18 11:42:23;;;;;;;0.40;0.20;;;;;;;;;;5020636;28;20064;-63
2023/02/18 11:44:59;;;;;;;0.98;0.52;;;;;;;;;;5053172;28;20057;-64
2023/02/18 11:47:35;;;;;;;9.27;1.02;;;;;;;;;;5053262;28;20057;-64
2023/02/18 11:50:08;;;;;;;2.20;0.60;;;;;;;;;;5053005;28;20087;-63
2023/02/18 11:52:45;;;;;;;2.67;1.02;;;;;;;;;;5053139;28;20437;-63
2023/02/18 11:55:19;;;;;;;1.10;0.40;;;;;;;;;;5052876;28;20057;-64
2023/02/18 11:58:04;;;;;;;1.60;0.50;;;;;;;;;;5053066;28;20409;-64
2023/02/18 12:00:46;;;;;;;1.13;0.57;;;;;;;;;;5013019;28;20528;-64
2023/02/18 12:03:40;;;;;;;2.08;0.85;;;;;;;;;;4980188;28;20105;-63
2023/02/18 12:06:37;;;;;;;3.22;0.40;;;;;;;;;;5040807;28;20053;-64
2023/02/18 12:09:28;;;;;;;4.15;0.70;;;;;;;;;;5052844;28;20500;-65
2023/02/18 12:12:02;;;;;;;1.65;0.68;;;;;;;;;;5052422;28;20064;-65
2023/02/18 12:14:32;;;;;;;2.08;0.52;;;;;;;;;;5020813;28;20076;-65
2023/02/18 12:17:27;;;;;;;2.13;0.50;;;;;;;;;;5020290;28;20072;-64
2023/02/18 12:20:15;;;;;;;2.25;0.35;;;;;;;;;;5052478;28;20076;-65
2023/02/18 12:22:57;;;;;;;1.10;0.32;;;;;;;;;;5051991;28;20053;-65
2023/02/18 12:25:36;;;;;;;4.35;0.73;;;;;;;;;;5052278;28;20064;-65
2023/02/18 12:28:27;;;;;;;0.95;0.40;;;;;;;;;;5052510;28;20520;-64
2023/02/18 12:31:30;;;;;;;0.68;0.25;;;;;;;;;;5052316;28;20064;-65
2023/02/18 12:34:28;;;;;;;3.85;0.70;;;;;;;;;;5051231;28;20052;-63
2023/02/18 12:37:45;;;;;;;2.53;0.70;;;;;;;;;;5052049;28;20188;-65
2023/02/18 12:40:44;;;;;;;3.22;0.38;;;;;;;;;;5012323;28;20073;-64
2023/02/18 12:43:31;;;;;;;1.35;0.40;;;;;;;;;;4979717;28;20053;-65
2023/02/18 12:46:01;;;;;;;12.95;5.78;;;;;;;;;;4979754;28;20079;-66
2023/02/18 12:48:48;;;;;;;4.05;1.42;;;;;;;;;;4979470;28;20057;-64
2023/02/18 12:51:35;;;;;;;0.73;0.40;;;;;;;;;;4995632;28;20494;-65
2023/02/18 12:54:24;;;;;;;6.72;0.80;;;;;;;;;;5012043;28;20065;-65
2023/02/18 12:56:54;;;;;;;1.58;0.60;;;;;;;;;;5012129;28;20062;-65
2023/02/18 12:59:36;;;;;;;12.93;5.25;;;;;;;;;;4995848;28;20418;-65
2023/02/18 13:02:43;;;;;;;5.18;1.75;;;;;;;;;;4979546;28;20536;-64
2023/02/18 13:05:40;;;;;;;11.20;5.28;;;;;;;;;;4953464;29;20059;-64
2023/02/18 13:08:54;;;;;;;6.38;3.90;;;;;;;;;;4953684;29;20516;-64
2023/02/18 13:12:00;;;;;;;4.07;1.45;;;;;;;;;;4896477;29;20064;-66
2023/02/18 13:14:37;;;;;;;3.22;0.45;;;;;;;;;;4896259;29;20061;-64
2023/02/18 13:17:10;;;;;;;3.72;2.17;;;;;;;;;;4873327;29;20052;-64
2023/02/18 13:19:54;;;;;;;1.70;0.40;;;;;;;;;;4887333;29;20063;-65
2023/02/18 13:22:28;;;;;;;1.13;0.40;;;;;;;;;;4886420;29;20167;-64
2023/02/18 13:24:58;;;;;;;2.15;0.70;;;;;;;;;;4887200;29;20531;-65
2023/02/18 13:27:43;;;;;;;1.95;0.57;;;;;;;;;;4933967;29;20055;-64
2023/02/18 13:30:42;;;;;;;3.75;0.45;;;;;;;;;;4934211;29;20054;-64
2023/02/18 13:33:27;;;;;;;1.30;0.30;;;;;;;;;;4918028;29;20558;-65
2023/02/18 13:36:04;;;;;;;3.17;0.80;;;;;;;;;;4933806;29;20420;-65
2023/02/18 13:39:18;;;;;;;3.53;0.93;;;;;;;;;;4940650;28;20174;-66
2023/02/18 13:41:51;;;;;;;1.77;0.32;;;;;;;;;;4933548;29;20055;-65
2023/02/18 13:44:21;;;;;;;2.42;0.32;;;;;;;;;;4932771;29;20056;-64
2023/02/18 13:46:55;;;;;;;1.63;0.40;;;;;;;;;;4904409;28;20522;-65
2023/02/18 13:49:35;;;;;;;1.25;0.47;;;;;;;;;;4991415;28;20050;-65
2023/02/18 13:52:05;;;;;;;1.98;0.50;;;;;;;;;;4958961;28;20073;-65
2023/02/18 13:54:43;;;;;;;3.03;0.50;;;;;;;;;;4974988;28;20058;-65
2023/02/18 13:57:25;;;;;;;1.42;0.43;;;;;;;;;;4991504;28;20046;-65
2023/02/18 14:00:14;;;;;;;0.98;0.43;;;;;;;;;;4976823;28;20058;-65
2023/02/18 14:02:59;;;;;;;1.67;0.65;;;;;;;;;;4990964;28;20049;-64
2023/02/18 14:05:40;;;;;;;3.03;0.30;;;;;;;;;;4999715;28;20054;-64
2023/02/18 14:08:13;;;;;;;2.70;0.95;;;;;;;;;;5010794;28;20433;-64
2023/02/18 14:11:11;;;;;;;1.35;0.50;;;;;;;;;;5010999;28;20103;-65
2023/02/18 14:13:59;;;;;;;1.63;0.30;;;;;;;;;;5010740;28;20061;-65
2023/02/18 14:17:07;;;;;;;1.13;0.32;;;;;;;;;;5010770;28;20042;-65
2023/02/18 14:19:37;;;;;;;1.52;0.40;;;;;;;;;;5058244;28;20048;-64
2023/02/18 14:22:31;;;;;;;1.95;0.55;;;;;;;;;;5071272;28;20491;-65
2023/02/18 14:25:04;;;;;;;1.15;0.43;;;;;;;;;;5072283;28;20059;-65
2023/02/18 14:27:35;;;;;;;4.00;0.50;;;;;;;;;;5072531;28;20365;-64
2023/02/18 14:30:17;;;;;;;2.55;0.57;;;;;;;;;;5072516;28;20476;-64
2023/02/18 14:32:50;;;;;;;1.98;0.75;;;;;;;;;;5070320;28;20500;-65
2023/02/18 14:35:52;;;;;;;2.05;0.60;;;;;;;;;;5072310;28;20507;-65
2023/02/18 14:38:46;;;;;;;1.95;0.98;;;;;;;;;;5072361;28;20373;-65
2023/02/18 14:41:38;;;;;;;4.18;0.80;;;;;;;;;;5053340;28;20400;-65
2023/02/18 14:44:23;;;;;;;1.17;0.55;;;;;;;;;;4996809;28;20064;-64
2023/02/18 14:47:32;;;;;;;1.08;0.60;;;;;;;;;;4980864;28;20053;-64
2023/02/18 14:50:09;;;;;;;6.25;0.60;;;;;;;;;;4996909;28;20614;-66
2023/02/18 14:52:53;;;;;;;0.75;0.35;;;;;;;;;;5029722;28;20046;-65
2023/02/18 14:55:36;;;;;;;3.25;0.60;;;;;;;;;;4980959;28;20513;-64
2023/02/18 14:58:12;;;;;;;2.35;0.40;;;;;;;;;;4996738;28;20060;-65
2023/02/18 15:00:44;;;;;;;1.45;0.65;;;;;;;;;;5029831;28;20049;-64
2023/02/18 15:03:18;;;;;;;2.72;0.88;;;;;;;;;;4997444;28;20060;-65
2023/02/18 15:05:52;;;;;;;2.67;0.35;;;;;;;;;;5029525;28;20128;-65
2023/02/18 15:08:25;;;;;;;1.67;0.40;;;;;;;;;;4979738;28;20306;-65
2023/02/18 15:11:03;;;;;;;2.47;0.30;;;;;;;;;;5012962;28;20056;-64
2023/02/18 15:13:43;;;;;;;0.45;0.20;;;;;;;;;;5029445;28;20060;-64
2023/02/18 15:16:19;;;;;;;1.60;0.35;;;;;;;;;;4996772;28;20068;-64
2023/02/18 15:19:11;;;;;;;1.30;0.30;;;;;;;;;;5029610;28;20053;-64
2023/02/18 15:21:45;;;;;;;0.68;0.30;;;;;;;;;;5043617;28;20061;-64
2023/02/18 15:24:31;;;;;;;3.20;0.32;;;;;;;;;;5032973;28;20499;-64
2023/02/18 15:27:11;;;;;;;0.28;0.20;;;;;;;;;;5016644;28;20056;-64
2023/02/18 15:29:42;;;;;;;1.08;0.30;;;;;;;;;;5051883;28;20049;-65
2023/02/18 15:32:19;;;;;;;0.80;0.32;;;;;;;;;;5051504;28;20056;-65
2023/02/18 15:35:00;;;;;;;3.00;0.40;;;;;;;;;;5033013;28;20060;-65
2023/02/18 15:37:30;;;;;;;1.52;0.45;;;;;;;;;;5049420;28;20080;-64
2023/02/18 15:40:00;;;;;;;1.73;0.45;;;;;;;;;;5049130;28;20056;-65